Time;durP1;ratioP1;P1;durP2;ratioP2;P2;SDS_P1;SDS_P2;PMS_P1;PMS_P2;Temp;Humidity;BMP_temperature;BMP_pressure;BME280_temperature;BME280_humidity;BME280_pressure;Samples;Min_cycle;Max_cycle;Signal;HPM_P1;HPM_P2
2022/10/15 00:01:58;;;;;;;2.80;2.70;;;19.70;71.10;;;;;;5099645;27;44485;-72
2022/10/15 00:04:26;;;;;;;2.30;2.30;;;19.60;71.20;;;;;;5099359;27;43425;-72
2022/10/15 00:06:54;;;;;;;3.23;3.03;;;19.60;71.50;;;;;;5097797;28;43458;-73
2022/10/15 00:09:23;;;;;;;2.43;2.33;;;19.50;71.90;;;;;;5098556;27;43928;-72
2022/10/15 00:11:51;;;;;;;2.83;2.73;;;19.50;72.20;;;;;;5096281;27;43938;-73
2022/10/15 00:14:19;;;;;;;2.70;2.60;;;19.50;72.10;;;;;;5097127;27;43468;-73
2022/10/15 00:16:47;;;;;;;2.93;2.83;;;19.40;72.00;;;;;;5099239;27;43430;-72
2022/10/15 00:19:15;;;;;;;2.80;2.70;;;19.40;72.00;;;;;;5098460;27;43603;-72
2022/10/15 00:21:43;;;;;;;3.00;2.80;;;19.40;72.20;;;;;;5099836;27;44706;-73
2022/10/15 00:24:10;;;;;;;2.77;2.67;;;19.40;72.90;;;;;;5099067;28;43485;-73
2022/10/15 00:26:40;;;;;;;2.80;2.70;;;19.40;72.70;;;;;;5095848;28;43509;-72
2022/10/15 00:29:08;;;;;;;2.90;2.80;;;19.40;72.50;;;;;;5098803;27;43850;-72
2022/10/15 00:31:36;;;;;;;2.80;2.70;;;19.30;72.30;;;;;;5098746;27;43442;-72
2022/10/15 00:34:05;;;;;;;2.93;2.83;;;19.30;72.40;;;;;;5099445;28;43457;-72
2022/10/15 00:36:34;;;;;;;2.97;2.87;;;19.30;72.60;;;;;;5099791;27;43389;-73
2022/10/15 00:39:02;;;;;;;3.10;3.00;;;19.30;73.10;;;;;;5098740;28;43901;-72
2022/10/15 00:41:32;;;;;;;2.80;2.70;;;19.40;72.80;;;;;;5097766;27;43965;-72
2022/10/15 00:44:02;;;;;;;3.00;2.80;;;19.50;72.40;;;;;;5100806;28;43437;-72
2022/10/15 00:46:31;;;;;;;2.90;2.80;;;19.60;71.90;;;;;;5101610;28;43401;-73
2022/10/15 00:49:02;;;;;;;2.97;2.87;;;19.70;71.80;;;;;;5102068;28;43902;-73
2022/10/15 00:51:36;;;;;;;2.70;2.60;;;19.60;71.50;;;;;;5101161;27;44515;-73
2022/10/15 00:54:06;;;;;;;2.97;2.87;;;19.60;71.90;;;;;;5097810;28;43463;-72
2022/10/15 00:56:34;;;;;;;2.87;2.77;;;19.60;71.90;;;;;;5100823;28;43426;-73
2022/10/15 00:59:03;;;;;;;2.73;2.63;;;19.60;71.80;;;;;;5097428;28;43848;-72
2022/10/15 01:01:31;;;;;;;2.80;2.70;;;19.50;71.70;;;;;;5099868;28;44925;-73
2022/10/15 01:03:59;;;;;;;2.93;2.80;;;19.50;71.90;;;;;;5102089;27;43399;-72
2022/10/15 01:06:27;;;;;;;2.90;2.80;;;19.40;72.30;;;;;;5101884;28;43497;-73
2022/10/15 01:08:55;;;;;;;2.77;2.67;;;19.40;72.50;;;;;;5100959;28;46039;-72
2022/10/15 01:11:35;;;;;;;2.60;2.50;;;19.40;72.40;;;;;;5101085;27;43476;-72
2022/10/15 01:14:12;;;;;;;2.70;2.60;;;19.40;72.40;;;;;;5097883;28;44290;-73
2022/10/15 01:16:42;;;;;;;2.73;2.63;;;19.40;72.40;;;;;;5100617;28;43501;-72
2022/10/15 01:19:17;;;;;;;2.80;2.70;;;19.30;72.70;;;;;;5096765;28;45331;-72
2022/10/15 01:21:47;;;;;;;3.03;2.93;;;19.30;72.90;;;;;;5098756;28;44200;-73
2022/10/15 01:24:42;;;;;;;2.80;2.70;;;19.30;72.70;;;;;;5099776;28;43497;-72
2022/10/15 01:27:34;;;;;;;2.77;2.67;;;19.30;72.50;;;;;;5100696;27;43418;-72
2022/10/15 01:30:20;;;;;;;2.63;2.43;;;19.30;73.30;;;;;;5099052;28;45591;-72
2022/10/15 01:33:03;;;;;;;2.70;2.60;;;19.30;73.00;;;;;;5099929;27;43409;-73
2022/10/15 01:35:35;;;;;;;2.67;2.57;;;19.30;73.00;;;;;;5100386;27;43433;-73
2022/10/15 01:38:08;;;;;;;2.77;2.67;;;19.40;72.60;;;;;;5100339;28;43501;-71
2022/10/15 01:40:38;;;;;;;2.80;2.70;;;19.60;72.20;;;;;;5099177;28;44020;-73
2022/10/15 01:43:09;;;;;;;2.80;2.70;;;19.70;71.60;;;;;;5100261;27;43445;-73
2022/10/15 01:45:53;;;;;;;2.77;2.67;;;19.80;71.30;;;;;;5099247;28;43475;-73
2022/10/15 01:48:34;;;;;;;2.53;2.43;;;19.70;71.20;;;;;;5099326;28;43450;-72
2022/10/15 01:51:03;;;;;;;2.50;2.40;;;19.70;71.40;;;;;;5099230;28;45673;-72
2022/10/15 01:53:33;;;;;;;2.80;2.60;;;19.60;71.60;;;;;;5099098;28;43961;-73
2022/10/15 01:56:04;;;;;;;2.60;2.50;;;19.50;72.00;;;;;;5100884;28;44078;-74
2022/10/15 01:58:32;;;;;;;3.00;2.90;;;19.50;72.30;;;;;;5101008;28;43541;-72
2022/10/15 02:01:01;;;;;;;2.57;2.47;;;19.50;72.10;;;;;;5099469;28;45474;-72
2022/10/15 02:03:29;;;;;;;2.20;2.20;;;19.40;72.10;;;;;;5099559;28;44425;-73
2022/10/15 02:06:00;;;;;;;2.60;2.50;;;19.40;72.20;;;;;;5099296;28;43447;-73
2022/10/15 02:08:31;;;;;;;2.43;2.33;;;19.40;72.50;;;;;;5101462;28;43483;-73
2022/10/15 02:11:00;;;;;;;2.50;2.40;;;19.40;72.90;;;;;;5100274;28;45558;-73
2022/10/15 02:13:33;;;;;;;2.60;2.50;;;19.40;72.60;;;;;;5100933;27;43445;-72
2022/10/15 02:16:06;;;;;;;2.73;2.63;;;19.50;72.10;;;;;;5099173;28;43457;-73
2022/10/15 02:18:38;;;;;;;2.70;2.60;;;19.60;71.90;;;;;;5101867;27;43506;-72
2022/10/15 02:21:07;;;;;;;2.57;2.50;;;19.60;71.70;;;;;;5101109;27;43890;-72
2022/10/15 02:23:38;;;;;;;2.50;2.40;;;19.60;72.00;;;;;;5100848;27;43449;-71
2022/10/15 02:26:07;;;;;;;2.30;2.20;;;19.60;72.00;;;;;;5098262;28;43498;-72
2022/10/15 02:28:35;;;;;;;2.27;2.27;;;19.50;71.90;;;;;;5097887;27;43397;-72
2022/10/15 02:31:04;;;;;;;2.30;2.20;;;19.50;71.90;;;;;;5096658;28;43884;-73
2022/10/15 02:33:32;;;;;;;2.27;2.20;;;19.50;72.00;;;;;;5093663;28;45179;-72
2022/10/15 02:36:00;;;;;;;2.30;2.30;;;19.40;72.10;;;;;;5096281;28;43734;-71
2022/10/15 02:38:31;;;;;;;2.30;2.30;;;19.40;72.60;;;;;;5095912;28;43509;-73
2022/10/15 02:40:59;;;;;;;2.50;2.40;;;19.40;72.60;;;;;;5096112;28;45332;-72
2022/10/15 02:43:27;;;;;;;2.37;2.30;;;19.40;72.40;;;;;;5096874;28;43598;-72
2022/10/15 02:45:56;;;;;;;2.53;2.43;;;19.40;72.40;;;;;;5097599;27;43440;-72
2022/10/15 02:48:26;;;;;;;2.10;2.10;;;19.30;72.50;;;;;;5093957;28;43985;-72
2022/10/15 02:50:54;;;;;;;2.43;2.33;;;19.30;72.90;;;;;;5095737;28;43908;-73
2022/10/15 02:53:22;;;;;;;2.13;2.10;;;19.30;72.80;;;;;;5097155;27;43408;-73
2022/10/15 02:55:50;;;;;;;2.27;2.27;;;19.30;72.60;;;;;;5094968;28;43433;-72
2022/10/15 02:58:18;;;;;;;2.70;2.60;;;19.30;72.60;;;;;;5096867;28;43389;-73
2022/10/15 03:00:48;;;;;;;2.43;2.37;;;19.30;72.70;;;;;;5101870;28;43889;-72
2022/10/15 03:03:17;;;;;;;2.20;2.20;;;19.20;73.10;;;;;;5098218;28;45976;-73
2022/10/15 03:05:46;;;;;;;2.23;2.20;;;19.30;73.10;;;;;;5099127;27;43470;-72
2022/10/15 03:08:15;;;;;;;2.00;2.00;;;19.40;72.60;;;;;;5098574;28;43533;-72
2022/10/15 03:10:44;;;;;;;2.37;2.27;;;19.60;72.10;;;;;;5098944;28;43979;-73
2022/10/15 03:13:13;;;;;;;2.17;2.17;;;19.70;71.60;;;;;;5098325;28;43389;-73
2022/10/15 03:15:48;;;;;;;2.07;2.07;;;19.80;71.30;;;;;;5098807;28;43454;-74
2022/10/15 03:18:16;;;;;;;2.20;2.20;;;19.80;71.30;;;;;;5101087;27;43513;-73
2022/10/15 03:20:52;;;;;;;2.00;2.00;;;19.70;71.20;;;;;;5132559;27;45710;-72
2022/10/15 03:23:20;;;;;;;2.10;2.10;;;19.60;71.40;;;;;;5097833;28;44560;-72
2022/10/15 03:25:55;;;;;;;2.03;2.00;;;19.50;71.70;;;;;;5127974;27;43459;-72
2022/10/15 03:28:24;;;;;;;2.10;2.00;;;19.50;72.30;;;;;;5101434;27;43509;-73
2022/10/15 03:30:52;;;;;;;2.40;2.30;;;19.50;72.30;;;;;;5099591;27;43835;-73
2022/10/15 03:33:20;;;;;;;2.37;2.30;;;19.50;72.10;;;;;;5097981;28;43492;-72
2022/10/15 03:35:53;;;;;;;2.03;2.03;;;19.40;72.20;;;;;;5098188;28;43445;-73
2022/10/15 03:38:22;;;;;;;2.10;2.00;;;19.40;72.30;;;;;;5099938;28;43511;-74
2022/10/15 03:40:54;;;;;;;2.40;2.30;;;19.40;72.90;;;;;;5098516;28;45431;-72
2022/10/15 03:43:40;;;;;;;2.40;2.30;;;19.40;72.80;;;;;;5099001;28;43469;-73
2022/10/15 03:46:10;;;;;;;2.30;2.10;;;19.40;72.60;;;;;;5098197;28;44004;-72
2022/10/15 03:48:42;;;;;;;2.20;2.10;;;19.30;72.50;;;;;;5098119;28;43460;-72
2022/10/15 03:51:14;;;;;;;2.97;2.70;;;19.30;72.70;;;;;;5098330;28;43826;-73
2022/10/15 03:53:52;;;;;;;2.80;2.60;;;19.30;73.20;;;;;;5097177;27;43526;-72
2022/10/15 03:56:20;;;;;;;4.67;3.00;;;19.30;72.90;;;;;;5097501;28;43463;-71
2022/10/15 03:58:49;;;;;;;2.97;2.77;;;19.50;72.60;;;;;;5094637;28;43514;-72
2022/10/15 04:01:17;;;;;;;3.03;2.70;;;19.70;72.00;;;;;;5096727;27;43638;-72
2022/10/15 04:03:46;;;;;;;3.30;3.00;;;19.80;71.60;;;;;;5095378;28;43390;-72
2022/10/15 04:06:17;;;;;;;3.93;2.87;;;19.80;71.30;;;;;;5096107;28;43897;-73
2022/10/15 04:08:46;;;;;;;3.90;2.93;;;19.70;71.20;;;;;;5095534;28;43480;-72
2022/10/15 04:11:23;;;;;;;2.90;2.77;;;19.70;71.40;;;;;;5095690;28;43851;-73
2022/10/15 04:14:03;;;;;;;2.87;2.67;;;19.60;71.60;;;;;;5094390;28;43449;-72
2022/10/15 04:16:32;;;;;;;3.30;3.00;;;19.50;72.00;;;;;;5095990;27;44022;-72
2022/10/15 04:19:05;;;;;;;3.27;2.97;;;19.50;72.30;;;;;;5099656;28;43418;-72
2022/10/15 04:21:40;;;;;;;2.90;2.70;;;19.50;72.40;;;;;;5100012;27;44075;-72
2022/10/15 04:24:13;;;;;;;2.80;2.60;;;19.50;72.30;;;;;;5100773;27;43447;-73
2022/10/15 04:26:41;;;;;;;3.20;3.00;;;19.40;72.30;;;;;;5098425;28;43471;-72
2022/10/15 04:29:09;;;;;;;4.13;3.30;;;19.40;72.50;;;;;;5099680;28;43735;-74
2022/10/15 04:31:37;;;;;;;3.67;3.37;;;19.40;73.00;;;;;;5098544;28;45950;-72
2022/10/15 04:34:05;;;;;;;3.67;3.30;;;19.40;72.70;;;;;;5098573;28;44734;-73
2022/10/15 04:36:33;;;;;;;3.57;3.07;;;19.50;72.20;;;;;;5099308;28;43408;-72
2022/10/15 04:39:07;;;;;;;2.87;2.67;;;19.60;72.10;;;;;;5099364;28;43509;-72
2022/10/15 04:41:42;;;;;;;3.20;2.93;;;19.60;71.90;;;;;;5102707;28;43848;-72
2022/10/15 04:44:17;;;;;;;3.93;3.60;;;19.50;72.10;;;;;;5101594;28;43379;-71
2022/10/15 04:46:51;;;;;;;3.90;3.60;;;19.50;72.10;;;;;;5096157;28;43398;-72
2022/10/15 04:49:27;;;;;;;3.97;3.43;;;19.60;72.10;;;;;;5102082;28;43923;-73
2022/10/15 04:51:56;;;;;;;2.90;2.70;;;19.50;72.00;;;;;;5100852;28;45538;-72
2022/10/15 04:54:38;;;;;;;3.57;3.27;;;19.50;72.10;;;;;;5102394;28;44441;-71
2022/10/15 04:57:06;;;;;;;3.80;3.50;;;19.40;72.70;;;;;;5101925;28;43383;-71
2022/10/15 04:59:35;;;;;;;3.03;2.83;;;19.40;72.70;;;;;;5102794;28;43522;-72
2022/10/15 05:02:22;;;;;;;3.80;3.37;;;19.40;72.50;;;;;;5099029;28;43628;-73
2022/10/15 05:04:55;;;;;;;3.10;2.90;;;19.40;72.50;;;;;;5094951;28;44713;-72
2022/10/15 05:07:23;;;;;;;3.57;3.27;;;19.40;72.60;;;;;;5101668;28;43424;-72
2022/10/15 05:09:55;;;;;;;3.83;3.43;;;19.40;73.00;;;;;;5137339;27;43579;-71
2022/10/15 05:12:23;;;;;;;3.87;3.57;;;19.40;73.00;;;;;;5103090;27;43608;-72
2022/10/15 05:14:52;;;;;;;3.80;3.30;;;19.50;72.60;;;;;;5101790;28;43534;-72
2022/10/15 05:17:26;;;;;;;3.67;2.97;;;19.60;72.20;;;;;;5101515;27;43445;-71
2022/10/15 05:19:55;;;;;;;3.40;3.03;;;19.60;71.90;;;;;;5102516;28;43438;-71
2022/10/15 05:22:26;;;;;;;3.50;3.20;;;19.60;71.90;;;;;;5102811;28;44033;-72
2022/10/15 05:25:00;;;;;;;3.63;3.33;;;19.60;72.40;;;;;;5098898;27;44476;-72
2022/10/15 05:27:32;;;;;;;3.70;3.20;;;19.60;72.20;;;;;;5099785;27;43415;-72
2022/10/15 05:30:03;;;;;;;3.63;3.33;;;19.60;72.20;;;;;;5099374;28;43533;-73
2022/10/15 05:32:39;;;;;;;3.37;3.17;;;19.50;72.00;;;;;;5099680;28;45610;-71
2022/10/15 05:35:10;;;;;;;3.47;3.10;;;19.50;72.20;;;;;;5098535;28;44690;-72
2022/10/15 05:37:59;;;;;;;3.57;3.33;;;19.40;72.70;;;;;;5101269;28;43437;-72
2022/10/15 05:40:28;;;;;;;3.70;3.40;;;19.40;72.80;;;;;;5100444;27;43394;-73
2022/10/15 05:43:09;;;;;;;3.10;2.90;;;19.40;72.60;;;;;;5099761;28;43859;-72
2022/10/15 05:45:37;;;;;;;3.10;2.90;;;19.40;72.50;;;;;;5099833;28;44273;-73
2022/10/15 05:48:06;;;;;;;3.30;3.00;;;19.40;72.60;;;;;;5099943;27;43424;-72
2022/10/15 05:50:35;;;;;;;3.70;3.40;;;19.30;72.60;;;;;;5100372;28;43629;-72
2022/10/15 05:53:07;;;;;;;3.27;2.83;;;19.30;73.10;;;;;;5099682;28;43861;-73
2022/10/15 05:55:43;;;;;;;3.10;2.90;;;19.40;73.00;;;;;;5099499;28;45078;-72
2022/10/15 05:58:10;;;;;;;3.30;3.10;;;19.50;72.50;;;;;;5100790;27;43457;-72
2022/10/15 06:00:39;;;;;;;3.73;3.40;;;19.70;72.00;;;;;;5101665;27;43447;-72
2022/10/15 06:03:09;;;;;;;3.03;2.83;;;19.80;71.50;;;;;;5100357;28;45832;-72
2022/10/15 06:05:37;;;;;;;3.37;3.10;;;19.80;71.40;;;;;;5101238;28;43407;-72
2022/10/15 06:08:05;;;;;;;3.20;3.00;;;19.80;72.40;;;;;;5099168;28;43485;-72
2022/10/15 06:10:36;;;;;;;3.07;2.87;;;19.70;71.50;;;;;;5097951;27;43573;-71
2022/10/15 06:13:05;;;;;;;3.30;3.00;;;19.60;71.70;;;;;;5100759;28;43897;-73
2022/10/15 06:15:33;;;;;;;3.60;3.30;;;19.50;72.30;;;;;;5101365;27;43442;-73
2022/10/15 06:18:01;;;;;;;3.00;2.80;;;19.50;72.40;;;;;;5096906;28;43471;-71
2022/10/15 06:20:29;;;;;;;3.10;2.90;;;19.50;72.30;;;;;;5125679;27;43572;-73
2022/10/15 06:22:58;;;;;;;3.20;2.90;;;19.50;72.30;;;;;;5099763;27;43856;-73
2022/10/15 06:25:26;;;;;;;3.10;2.83;;;19.40;73.00;;;;;;5101319;27;43472;-73
2022/10/15 06:27:54;;;;;;;3.67;3.37;;;19.40;72.90;;;;;;5100959;27;44028;-72
2022/10/15 06:30:28;;;;;;;3.23;3.03;;;19.40;72.90;;;;;;5098590;28;43358;-73
2022/10/15 06:32:56;;;;;;;3.00;2.80;;;19.40;72.70;;;;;;5096680;28;43879;-72
2022/10/15 06:35:25;;;;;;;3.13;2.93;;;19.40;72.60;;;;;;5099393;28;43430;-73
2022/10/15 06:37:53;;;;;;;3.00;2.80;;;19.40;72.70;;;;;;5100862;28;43401;-72
2022/10/15 06:40:24;;;;;;;3.63;3.33;;;19.30;72.70;;;;;;5095227;27;43446;-72
2022/10/15 06:42:52;;;;;;;3.53;3.23;;;19.30;73.20;;;;;;5100237;27;43842;-73
2022/10/15 06:45:20;;;;;;;2.77;2.57;;;19.40;73.10;;;;;;5100797;27;43410;-73
2022/10/15 06:47:50;;;;;;;3.00;2.90;;;19.50;72.50;;;;;;5097666;28;43446;-72
2022/10/15 06:50:18;;;;;;;3.20;2.90;;;19.60;72.10;;;;;;5100493;27;43413;-72
2022/10/15 06:52:46;;;;;;;3.23;3.00;;;19.70;72.00;;;;;;5099950;27;43602;-73
2022/10/15 06:55:14;;;;;;;3.73;3.43;;;19.70;71.90;;;;;;5100590;27;43401;-72
2022/10/15 06:57:41;;;;;;;3.23;2.93;;;19.60;72.10;;;;;;5100686;27;43429;-72
2022/10/15 07:00:10;;;;;;;3.07;2.87;;;19.60;72.00;;;;;;5100972;27;43534;-72
2022/10/15 07:02:38;;;;;;;2.70;2.53;;;19.60;71.90;;;;;;5100163;28;43971;-72
2022/10/15 07:05:08;;;;;;;2.70;2.60;;;19.60;72.00;;;;;;5098746;27;43481;-72
2022/10/15 07:07:36;;;;;;;2.80;2.60;;;19.50;72.10;;;;;;5100963;28;43397;-72
2022/10/15 07:10:05;;;;;;;2.40;2.30;;;19.50;72.70;;;;;;5096832;28;43469;-71
2022/10/15 07:12:33;;;;;;;3.13;2.93;;;19.50;72.70;;;;;;5097073;28;43906;-71
2022/10/15 07:15:01;;;;;;;2.60;2.50;;;19.40;72.40;;;;;;5099423;27;43421;-72
2022/10/15 07:17:30;;;;;;;3.10;2.90;;;19.40;72.50;;;;;;5099243;28;43455;-71
2022/10/15 07:19:58;;;;;;;2.90;2.70;;;19.40;72.60;;;;;;5099956;28;43487;-72
2022/10/15 07:22:27;;;;;;;2.70;2.60;;;19.40;73.20;;;;;;5099028;27;43794;-73
2022/10/15 07:24:55;;;;;;;3.00;2.80;;;19.40;73.00;;;;;;5099851;27;43495;-72
2022/10/15 07:27:23;;;;;;;2.23;2.13;;;19.50;72.50;;;;;;5100044;27;43458;-73
2022/10/15 07:29:52;;;;;;;2.60;2.50;;;19.60;72.20;;;;;;5099555;27;43788;-72
2022/10/15 07:32:20;;;;;;;2.70;2.60;;;19.60;72.00;;;;;;5099503;27;43792;-73
2022/10/15 07:34:48;;;;;;;2.37;2.27;;;19.60;72.20;;;;;;5099547;27;43429;-72
2022/10/15 07:37:16;;;;;;;2.67;2.47;;;19.60;72.40;;;;;;5097179;28;43417;-72
2022/10/15 07:39:45;;;;;;;2.63;2.50;;;19.60;72.30;;;;;;5099326;27;43485;-72
2022/10/15 07:42:13;;;;;;;2.40;2.30;;;19.50;72.10;;;;;;5098948;28;43969;-73
2022/10/15 07:44:41;;;;;;;2.50;2.40;;;19.50;72.20;;;;;;5096746;28;43432;-72
2022/10/15 07:47:10;;;;;;;2.63;2.53;;;19.50;72.30;;;;;;5096591;28;43493;-73
2022/10/15 07:49:37;;;;;;;2.70;2.40;;;19.40;72.80;;;;;;5099240;27;43429;-72
2022/10/15 07:52:07;;;;;;;2.53;2.43;;;19.40;72.90;;;;;;5099439;27;43835;-72
2022/10/15 07:54:35;;;;;;;2.90;2.80;;;19.40;72.70;;;;;;5099270;28;43440;-72
2022/10/15 07:57:05;;;;;;;2.27;2.17;;;19.40;72.60;;;;;;5099218;27;43438;-72
2022/10/15 07:59:33;;;;;;;2.60;2.50;;;19.40;72.70;;;;;;5098887;28;43588;-73
2022/10/15 08:02:01;;;;;;;2.80;2.70;;;19.30;72.70;;;;;;5097954;28;45458;-72
2022/10/15 08:04:29;;;;;;;2.63;2.50;;;19.30;73.30;;;;;;5098323;28;44622;-73
2022/10/15 08:06:57;;;;;;;2.40;2.30;;;19.40;73.20;;;;;;5099470;27;43504;-71
2022/10/15 08:09:25;;;;;;;2.60;2.50;;;19.50;72.70;;;;;;5096960;27;43402;-72
2022/10/15 08:11:53;;;;;;;2.27;2.17;;;19.70;72.20;;;;;;5097544;27;44151;-71
2022/10/15 08:14:22;;;;;;;2.37;2.27;;;19.80;71.70;;;;;;5098910;27;43416;-72
2022/10/15 08:16:50;;;;;;;2.17;2.07;;;19.80;71.60;;;;;;5098294;28;43532;-73
2022/10/15 08:19:18;;;;;;;2.40;2.30;;;19.80;71.50;;;;;;5099117;28;43518;-73
2022/10/15 08:21:48;;;;;;;2.20;2.20;;;19.70;71.60;;;;;;5097059;28;45751;-73
2022/10/15 08:24:16;;;;;;;2.20;2.10;;;19.60;71.80;;;;;;5098548;28;44233;-72
2022/10/15 08:26:45;;;;;;;2.63;2.50;;;19.50;72.20;;;;;;5096672;28;43507;-72
2022/10/15 08:29:13;;;;;;;2.10;2.10;;;19.50;72.50;;;;;;5098575;27;43384;-73
2022/10/15 08:31:42;;;;;;;2.30;2.20;;;19.50;72.50;;;;;;5097459;27;44007;-72
2022/10/15 08:34:10;;;;;;;2.30;2.20;;;19.50;72.40;;;;;;5096943;27;43409;-73
2022/10/15 08:36:38;;;;;;;2.40;2.30;;;19.40;72.40;;;;;;5097658;28;43418;-73
2022/10/15 08:39:08;;;;;;;2.47;2.37;;;19.40;72.60;;;;;;5098769;28;43398;-72
2022/10/15 08:41:37;;;;;;;2.30;2.20;;;19.40;73.10;;;;;;5096359;28;45338;-72
2022/10/15 08:44:06;;;;;;;2.20;2.10;;;19.40;73.00;;;;;;5097451;28;45235;-72
2022/10/15 08:46:35;;;;;;;2.30;2.20;;;19.40;72.80;;;;;;5098241;28;43546;-72
2022/10/15 08:49:04;;;;;;;2.10;2.10;;;19.30;72.70;;;;;;5098568;27;43478;-72
2022/10/15 08:51:37;;;;;;;2.00;1.90;;;19.30;72.80;;;;;;5097831;27;43601;-71
2022/10/15 08:54:07;;;;;;;2.57;2.47;;;19.30;73.30;;;;;;5098609;28;43472;-71
2022/10/15 08:56:36;;;;;;;2.30;2.20;;;19.30;73.20;;;;;;5098526;28;43406;-73
2022/10/15 08:59:07;;;;;;;2.30;2.20;;;19.40;72.90;;;;;;5094903;28;43432;-72
2022/10/15 09:01:37;;;;;;;1.83;1.73;;;19.60;72.50;;;;;;5091557;27;43642;-72
2022/10/15 09:04:14;;;;;;;2.30;2.20;;;19.70;71.80;;;;;;5102341;27;43471;-73
2022/10/15 09:06:42;;;;;;;2.20;2.10;;;19.80;71.60;;;;;;5101269;27;43520;-72
2022/10/15 09:09:15;;;;;;;1.90;1.90;;;19.80;71.60;;;;;;5101573;27;43383;-73
2022/10/15 09:11:50;;;;;;;2.40;2.30;;;19.70;71.60;;;;;;5098179;27;43634;-72
2022/10/15 09:14:20;;;;;;;1.90;1.90;;;19.60;72.50;;;;;;5100742;28;43437;-72
2022/10/15 09:16:49;;;;;;;2.00;2.00;;;19.50;72.10;;;;;;5098488;28;43858;-72
2022/10/15 09:19:19;;;;;;;2.03;2.00;;;19.50;72.60;;;;;;5102077;27;43457;-72
2022/10/15 09:21:47;;;;;;;2.33;2.23;;;19.50;72.60;;;;;;5101760;27;43602;-72
2022/10/15 09:24:18;;;;;;;2.20;2.10;;;19.50;72.40;;;;;;5101703;27;43405;-72
2022/10/15 09:26:54;;;;;;;2.10;2.00;;;19.40;72.40;;;;;;5100530;28;43425;-72
2022/10/15 09:29:23;;;;;;;2.00;2.00;;;19.40;72.60;;;;;;5102348;27;43338;-72
2022/10/15 09:31:56;;;;;;;2.30;2.20;;;19.40;73.20;;;;;;5101235;27;43893;-72
2022/10/15 09:34:34;;;;;;;2.00;2.00;;;19.40;73.00;;;;;;5100344;27;44396;-74
2022/10/15 09:37:05;;;;;;;2.27;2.17;;;19.50;72.60;;;;;;5100738;27;43517;-72
2022/10/15 09:39:41;;;;;;;1.97;1.97;;;19.60;72.20;;;;;;5100169;27;43413;-73
2022/10/15 09:42:16;;;;;;;2.10;2.00;;;19.60;72.10;;;;;;5100398;27;43669;-72
2022/10/15 09:44:44;;;;;;;2.30;2.20;;;19.60;72.20;;;;;;5101107;28;43444;-72
2022/10/15 09:47:17;;;;;;;1.83;1.83;;;19.60;72.20;;;;;;5099488;27;43445;-72
2022/10/15 09:49:46;;;;;;;2.20;2.10;;;19.60;72.20;;;;;;5101347;27;43395;-73
2022/10/15 09:52:17;;;;;;;1.80;1.80;;;19.60;72.20;;;;;;5099524;27;43851;-73
2022/10/15 09:54:48;;;;;;;2.00;1.90;;;19.50;72.10;;;;;;5100020;28;43421;-72
2022/10/15 09:57:16;;;;;;;1.83;1.73;;;19.50;72.40;;;;;;5099771;27;43457;-74
2022/10/15 09:59:54;;;;;;;2.00;2.00;;;19.50;72.90;;;;;;5100461;27;43421;-73
2022/10/15 10:02:23;;;;;;;2.00;1.90;;;19.50;72.70;;;;;;5099231;27;43596;-73
2022/10/15 10:04:53;;;;;;;2.00;2.00;;;19.40;72.60;;;;;;5098670;27;43442;-72
2022/10/15 10:07:31;;;;;;;2.10;2.00;;;19.40;72.70;;;;;;5096549;27;43465;-73
2022/10/15 10:10:01;;;;;;;1.90;1.90;;;19.40;73.00;;;;;;5097598;28;43540;-72
2022/10/15 10:12:30;;;;;;;1.80;1.80;;;19.40;73.30;;;;;;5098752;28;46062;-72
2022/10/15 10:14:59;;;;;;;1.80;1.70;;;19.50;73.00;;;;;;5096374;27;44391;-73
2022/10/15 10:17:27;;;;;;;2.10;2.00;;;19.50;72.40;;;;;;5095597;28;43458;-72
2022/10/15 10:20:21;;;;;;;1.90;1.90;;;19.60;72.10;;;;;;5099186;27;43478;-72
2022/10/15 10:22:51;;;;;;;2.00;1.90;;;19.70;72.00;;;;;;5089698;27;44057;-73
2022/10/15 10:25:31;;;;;;;1.70;1.70;;;19.60;72.20;;;;;;5099127;28;43436;-73
2022/10/15 10:28:03;;;;;;;2.00;2.00;;;19.60;72.10;;;;;;5099353;28;43358;-72
2022/10/15 10:30:33;;;;;;;2.20;2.10;;;19.60;72.10;;;;;;5100397;27;43367;-72
2022/10/15 10:33:01;;;;;;;1.90;1.80;;;19.60;72.10;;;;;;5096147;28;43669;-73
2022/10/15 10:35:35;;;;;;;1.60;1.60;;;19.50;72.10;;;;;;5098669;27;43461;-73
2022/10/15 10:38:03;;;;;;;1.83;1.83;;;19.50;72.50;;;;;;5099439;27;43450;-72
2022/10/15 10:40:34;;;;;;;1.77;1.77;;;19.50;72.90;;;;;;5099031;27;44048;-73
2022/10/15 10:43:16;;;;;;;1.60;1.60;;;19.50;72.80;;;;;;5099217;28;43914;-72
2022/10/15 10:45:53;;;;;;;1.70;1.70;;;19.50;72.60;;;;;;5097403;28;43356;-72
2022/10/15 10:48:22;;;;;;;1.80;1.80;;;19.40;72.50;;;;;;5096236;28;43533;-73
2022/10/15 10:51:02;;;;;;;2.10;2.10;;;19.40;72.70;;;;;;5095400;27;43939;-73
2022/10/15 10:53:30;;;;;;;1.73;1.73;;;19.40;73.20;;;;;;5093645;27;44233;-73
2022/10/15 10:55:58;;;;;;;1.70;1.70;;;19.40;73.10;;;;;;5095203;27;43473;-72
2022/10/15 10:58:28;;;;;;;1.80;1.80;;;19.50;72.70;;;;;;5094471;27;43517;-72
2022/10/15 11:00:56;;;;;;;1.60;1.60;;;19.70;72.20;;;;;;5097000;27;43450;-72
2022/10/15 11:03:31;;;;;;;1.70;1.70;;;19.80;71.70;;;;;;5094392;28;45546;-73
2022/10/15 11:06:07;;;;;;;1.70;1.70;;;19.80;71.50;;;;;;5098835;27;43428;-72
2022/10/15 11:08:38;;;;;;;1.73;1.73;;;19.80;71.60;;;;;;5091436;28;43825;-72
2022/10/15 11:11:10;;;;;;;1.63;1.63;;;19.70;71.70;;;;;;5096418;28;44414;-72
2022/10/15 11:13:48;;;;;;;1.67;1.63;;;19.60;71.80;;;;;;5098959;28;43913;-72
2022/10/15 11:16:19;;;;;;;1.67;1.67;;;19.50;72.40;;;;;;5132117;27;43369;-72
2022/10/15 11:19:03;;;;;;;1.60;1.60;;;19.50;72.60;;;;;;5097839;28;43417;-72
2022/10/15 11:21:54;;;;;;;1.67;1.67;;;19.50;72.50;;;;;;5095697;27;43752;-72
2022/10/15 11:24:24;;;;;;;1.60;1.50;;;19.40;72.40;;;;;;5097316;27;43626;-72
2022/10/15 11:26:58;;;;;;;2.00;1.90;;;19.40;72.50;;;;;;5097472;27;44967;-73
2022/10/15 11:29:44;;;;;;;1.70;1.70;;;19.40;73.80;;;;;;5097160;28;43370;-73
2022/10/15 11:32:18;;;;;;;1.53;1.53;;;19.40;73.00;;;;;;5095745;27;43566;-71
2022/10/15 11:34:58;;;;;;;2.00;1.90;;;19.50;72.60;;;;;;5095114;27;43703;-72
2022/10/15 11:37:34;;;;;;;1.67;1.67;;;19.60;72.30;;;;;;5096461;28;43469;-72
2022/10/15 11:40:19;;;;;;;1.90;1.90;;;19.60;72.10;;;;;;5100470;27;43556;-73
2022/10/15 11:42:55;;;;;;;1.80;1.80;;;19.60;72.40;;;;;;5099319;27;43445;-72
2022/10/15 11:45:32;;;;;;;1.60;1.60;;;19.60;72.50;;;;;;5093893;27;43598;-72
2022/10/15 11:48:02;;;;;;;1.67;1.67;;;19.60;72.30;;;;;;5087756;27;43698;-73
2022/10/15 11:50:32;;;;;;;1.50;1.50;;;19.50;72.20;;;;;;5098200;27;43443;-73
2022/10/15 11:53:29;;;;;;;1.63;1.63;;;19.50;72.40;;;;;;5095016;27;43600;-72
2022/10/15 11:55:59;;;;;;;1.77;1.77;;;19.50;73.00;;;;;;5077088;27;43966;-72
2022/10/15 11:58:29;;;;;;;1.70;1.70;;;19.50;73.00;;;;;;5100136;27;43448;-72
2022/10/15 12:01:00;;;;;;;1.30;1.30;;;19.40;72.70;;;;;;5096585;27;43533;-73
2022/10/15 12:03:28;;;;;;;1.70;1.70;;;19.40;72.70;;;;;;5098140;27;43499;-72
2022/10/15 12:05:58;;;;;;;1.50;1.50;;;19.40;72.70;;;;;;5097026;27;43606;-73
2022/10/15 12:08:30;;;;;;;1.60;1.60;;;19.40;73.20;;;;;;5099334;27;43694;-72
2022/10/15 12:11:11;;;;;;;1.40;1.40;;;19.40;73.30;;;;;;5101612;27;43425;-72
2022/10/15 12:13:40;;;;;;;1.50;1.50;;;19.50;72.90;;;;;;5095237;27;43530;-72
2022/10/15 12:16:15;;;;;;;1.77;1.57;;;19.60;72.40;;;;;;5088195;27;44020;-73
2022/10/15 12:18:45;;;;;;;5.97;1.60;;;19.80;71.80;;;;;;5092053;27;43877;-73
2022/10/15 12:21:34;;;;;;;1.33;1.33;;;19.80;71.30;;;;;;5094577;27;44151;-72
2022/10/15 12:24:05;;;;;;;2.07;1.50;;;19.80;71.40;;;;;;5095685;27;43441;-73
2022/10/15 12:26:33;;;;;;;1.70;1.57;;;19.70;71.70;;;;;;5097454;27;43929;-72
2022/10/15 12:29:03;;;;;;;2.00;1.60;;;19.60;71.90;;;;;;5096595;27;44765;-71
2022/10/15 12:31:48;;;;;;;6.47;1.90;;;19.50;72.30;;;;;;5102903;27;43446;-73
2022/10/15 12:34:28;;;;;;;1.73;1.63;;;19.50;72.70;;;;;;5096195;27;44066;-72
2022/10/15 12:37:00;;;;;;;2.20;1.80;;;19.50;72.60;;;;;;5092756;27;43594;-72
2022/10/15 12:39:29;;;;;;;2.13;1.50;;;19.50;72.50;;;;;;5094242;27;43516;-72
2022/10/15 12:42:21;;;;;;;1.60;1.50;;;19.40;72.50;;;;;;5125449;27;44235;-71
2022/10/15 12:44:49;;;;;;;1.73;1.63;;;19.40;72.70;;;;;;5095218;27;43912;-73
2022/10/15 12:47:23;;;;;;;2.87;1.70;;;19.40;73.20;;;;;;5092933;27;43924;-73
2022/10/15 12:50:01;;;;;;;5.87;1.93;;;19.40;73.10;;;;;;5096726;28;43445;-73
2022/10/15 12:52:58;;;;;;;1.80;1.67;;;19.40;72.80;;;;;;5097124;28;43470;-73
2022/10/15 12:55:29;;;;;;;2.40;1.83;;;19.40;72.80;;;;;;5094898;28;43956;-72
2022/10/15 12:57:59;;;;;;;1.80;1.70;;;19.30;72.90;;;;;;5097123;28;43861;-73
2022/10/15 13:00:29;;;;;;;2.53;1.90;;;19.30;73.30;;;;;;5097269;28;43790;-72
2022/10/15 13:03:00;;;;;;;3.70;1.97;;;19.40;73.30;;;;;;5097544;27;43963;-72
2022/10/15 13:05:29;;;;;;;1.50;1.40;;;19.50;73.00;;;;;;5097864;27;43407;-72
2022/10/15 13:07:58;;;;;;;6.33;1.83;;;19.70;72.40;;;;;;5095988;28;43922;-72
2022/10/15 13:10:29;;;;;;;1.73;1.63;;;19.80;71.90;;;;;;5098490;27;43300;-72